Terminal Aerodrome Forecast
Issued by NWS

Current Version | Previous Version | Text Only | Print | Product List | Glossary On
Versions: 1 2 3 4 5 6 7 8 9 10 11 12 13 14 15 16 17 18 19 20 21 22 23 24 25
951
FTUS43 KIND 201720
TAFHUF
TAF
KHUF 201720Z 2018/2118 18009KT P6SM FEW030 FEW250
     FM202300 19004KT P6SM FEW250
     FM211100 VRB03KT 3SM BR SCT200
     FM211400 VRB03KT P6SM FEW250=

USA.gov is the U.S. government's official web portal to all federal, state and local government web resources and services.